sensor_id;sensor_type;location;lat;lon;timestamp;pressure;altitude;pressure_sealevel;temperature;humidity
80382;BME280;69692;55.820;37.490;2023-08-08T00:01:38;98948.34;;;26.54;48.94
80382;BME280;69692;55.820;37.490;2023-08-08T00:04:10;98941.00;;;26.45;49.59
80382;BME280;69692;55.820;37.490;2023-08-08T00:06:37;98942.25;;;26.48;49.32
80382;BME280;69692;55.820;37.490;2023-08-08T00:09:04;98929.88;;;26.42;49.96
80382;BME280;69692;55.820;37.490;2023-08-08T00:11:30;98936.66;;;26.44;49.77
80382;BME280;69692;55.820;37.490;2023-08-08T00:13:57;98933.81;;;26.41;49.73
80382;BME280;69692;55.820;37.490;2023-08-08T00:16:23;98934.69;;;26.45;49.54
80382;BME280;69692;55.820;37.490;2023-08-08T00:18:50;98941.94;;;26.50;49.94
80382;BME280;69692;55.820;37.490;2023-08-08T00:21:17;98933.66;;;26.50;49.12
80382;BME280;69692;55.820;37.490;2023-08-08T00:23:43;98937.22;;;26.50;49.24
80382;BME280;69692;55.820;37.490;2023-08-08T00:26:09;98933.47;;;26.02;49.92
80382;BME280;69692;55.820;37.490;2023-08-08T00:28:35;98925.41;;;25.57;50.72
80382;BME280;69692;55.820;37.490;2023-08-08T00:31:00;98927.63;;;25.27;51.66
80382;BME280;69692;55.820;37.490;2023-08-08T00:33:26;98912.66;;;25.00;52.42
80382;BME280;69692;55.820;37.490;2023-08-08T00:35:52;98921.88;;;24.83;52.96
80382;BME280;69692;55.820;37.490;2023-08-08T00:38:18;98918.31;;;24.71;53.53
80382;BME280;69692;55.820;37.490;2023-08-08T00:40:44;98906.03;;;24.56;54.42
80382;BME280;69692;55.820;37.490;2023-08-08T00:43:10;98910.72;;;24.43;54.57
80382;BME280;69692;55.820;37.490;2023-08-08T00:45:38;98919.03;;;24.34;54.74
80382;BME280;69692;55.820;37.490;2023-08-08T00:48:05;98907.97;;;24.22;54.62
80382;BME280;69692;55.820;37.490;2023-08-08T00:50:31;98898.88;;;24.09;55.11
80382;BME280;69692;55.820;37.490;2023-08-08T00:52:57;98904.72;;;24.08;55.75
80382;BME280;69692;55.820;37.490;2023-08-08T00:55:23;98897.19;;;24.50;56.37
80382;BME280;69692;55.820;37.490;2023-08-08T00:57:49;98886.31;;;25.39;52.93
80382;BME280;69692;55.820;37.490;2023-08-08T01:00:15;98893.97;;;25.70;52.35
80382;BME280;69692;55.820;37.490;2023-08-08T01:02:40;98895.00;;;26.06;51.39
80382;BME280;69692;55.820;37.490;2023-08-08T01:05:08;98895.47;;;26.24;50.79
80382;BME280;69692;55.820;37.490;2023-08-08T01:10:33;98883.50;;;26.48;50.01
80382;BME280;69692;55.820;37.490;2023-08-08T01:13:08;98886.47;;;26.55;49.66
80382;BME280;69692;55.820;37.490;2023-08-08T01:15:36;98885.75;;;26.58;48.58
80382;BME280;69692;55.820;37.490;2023-08-08T01:18:04;98892.78;;;26.55;49.22
80382;BME280;69692;55.820;37.490;2023-08-08T01:20:35;98891.63;;;26.56;49.47
80382;BME280;69692;55.820;37.490;2023-08-08T01:25:39;98867.44;;;26.65;49.17
80382;BME280;69692;55.820;37.490;2023-08-08T01:28:07;98860.03;;;26.69;49.07
80382;BME280;69692;55.820;37.490;2023-08-08T01:30:33;98860.56;;;26.75;49.33
80382;BME280;69692;55.820;37.490;2023-08-08T01:33:01;98864.56;;;26.78;49.05
80382;BME280;69692;55.820;37.490;2023-08-08T01:35:30;98863.44;;;26.79;49.32
80382;BME280;69692;55.820;37.490;2023-08-08T01:38:20;98871.25;;;26.77;49.02
80382;BME280;69692;55.820;37.490;2023-08-08T01:40:49;98864.13;;;26.75;49.40
80382;BME280;69692;55.820;37.490;2023-08-08T01:43:15;98858.97;;;26.74;49.60
80382;BME280;69692;55.820;37.490;2023-08-08T01:45:42;98866.91;;;26.32;49.20
80382;BME280;69692;55.820;37.490;2023-08-08T01:48:10;98869.69;;;25.48;51.09
80382;BME280;69692;55.820;37.490;2023-08-08T01:50:36;98858.38;;;24.88;52.24
80382;BME280;69692;55.820;37.490;2023-08-08T01:53:03;98859.13;;;24.52;54.08
80382;BME280;69692;55.820;37.490;2023-08-08T01:55:30;98859.28;;;24.23;54.36
80382;BME280;69692;55.820;37.490;2023-08-08T01:57:56;98866.22;;;24.08;55.07
80382;BME280;69692;55.820;37.490;2023-08-08T02:00:22;98870.88;;;23.95;55.46
80382;BME280;69692;55.820;37.490;2023-08-08T02:02:48;98868.81;;;23.92;55.40
80382;BME280;69692;55.820;37.490;2023-08-08T02:05:13;98865.19;;;23.79;56.17
80382;BME280;69692;55.820;37.490;2023-08-08T02:07:39;98879.50;;;23.73;56.52
80382;BME280;69692;55.820;37.490;2023-08-08T02:10:06;98900.06;;;23.67;55.70
80382;BME280;69692;55.820;37.490;2023-08-08T02:12:32;98895.09;;;23.60;56.51
80382;BME280;69692;55.820;37.490;2023-08-08T02:14:59;98891.28;;;23.53;57.09
80382;BME280;69692;55.820;37.490;2023-08-08T02:17:26;98890.66;;;23.47;57.76
80382;BME280;69692;55.820;37.490;2023-08-08T02:19:52;98883.41;;;23.42;57.24
80382;BME280;69692;55.820;37.490;2023-08-08T02:22:19;98895.59;;;23.33;58.55
80382;BME280;69692;55.820;37.490;2023-08-08T02:24:45;98892.25;;;23.27;58.89
80382;BME280;69692;55.820;37.490;2023-08-08T02:27:12;98902.31;;;23.14;59.79
80382;BME280;69692;55.820;37.490;2023-08-08T02:29:38;98898.44;;;23.15;60.08
80382;BME280;69692;55.820;37.490;2023-08-08T02:32:04;98894.69;;;23.20;59.53
80382;BME280;69692;55.820;37.490;2023-08-08T02:34:30;98892.75;;;23.20;59.61
80382;BME280;69692;55.820;37.490;2023-08-08T02:36:56;98890.69;;;23.17;59.61
80382;BME280;69692;55.820;37.490;2023-08-08T02:39:22;98884.03;;;23.18;59.40
80382;BME280;69692;55.820;37.490;2023-08-08T02:41:48;98876.28;;;23.20;59.40
80382;BME280;69692;55.820;37.490;2023-08-08T02:44:14;98884.84;;;23.19;59.33
80382;BME280;69692;55.820;37.490;2023-08-08T02:46:40;98889.38;;;23.24;59.49
80382;BME280;69692;55.820;37.490;2023-08-08T02:49:06;98889.38;;;23.24;59.54
80382;BME280;69692;55.820;37.490;2023-08-08T02:51:32;98884.47;;;23.29;59.46
80382;BME280;69692;55.820;37.490;2023-08-08T02:53:59;98892.13;;;23.24;58.98
80382;BME280;69692;55.820;37.490;2023-08-08T02:56:26;98885.19;;;23.17;59.14
80382;BME280;69692;55.820;37.490;2023-08-08T02:58:52;98882.44;;;23.17;59.46
80382;BME280;69692;55.820;37.490;2023-08-08T03:01:19;98886.16;;;23.22;59.33
80382;BME280;69692;55.820;37.490;2023-08-08T03:03:46;98885.19;;;23.17;58.57
80382;BME280;69692;55.820;37.490;2023-08-08T03:06:13;98888.25;;;23.16;58.71
80382;BME280;69692;55.820;37.490;2023-08-08T03:08:39;98890.22;;;23.15;58.25
80382;BME280;69692;55.820;37.490;2023-08-08T03:11:05;98891.47;;;23.18;58.92
80382;BME280;69692;55.820;37.490;2023-08-08T03:13:32;98894.38;;;23.22;59.18
80382;BME280;69692;55.820;37.490;2023-08-08T03:15:58;98889.38;;;23.24;58.61
80382;BME280;69692;55.820;37.490;2023-08-08T03:18:24;98889.97;;;23.29;58.82
80382;BME280;69692;55.820;37.490;2023-08-08T03:20:52;98891.56;;;23.30;58.55
80382;BME280;69692;55.820;37.490;2023-08-08T03:23:19;98895.78;;;23.28;58.75
80382;BME280;69692;55.820;37.490;2023-08-08T03:25:45;98905.28;;;23.30;59.20
80382;BME280;69692;55.820;37.490;2023-08-08T03:28:12;98900.75;;;23.34;59.08
80382;BME280;69692;55.820;37.490;2023-08-08T03:30:39;98902.50;;;23.39;59.21
80382;BME280;69692;55.820;37.490;2023-08-08T03:33:07;98897.59;;;23.44;58.29
80382;BME280;69692;55.820;37.490;2023-08-08T03:35:33;98904.59;;;23.42;59.06
80382;BME280;69692;55.820;37.490;2023-08-08T03:38:00;98907.66;;;23.40;57.92
80382;BME280;69692;55.820;37.490;2023-08-08T03:40:26;98904.28;;;23.35;58.13
80382;BME280;69692;55.820;37.490;2023-08-08T03:42:52;98906.22;;;23.34;58.15
80382;BME280;69692;55.820;37.490;2023-08-08T03:45:18;98903.16;;;23.36;57.30
80382;BME280;69692;55.820;37.490;2023-08-08T03:47:45;98902.34;;;23.35;57.42
80382;BME280;69692;55.820;37.490;2023-08-08T03:50:11;98913.31;;;23.35;57.59
80382;BME280;69692;55.820;37.490;2023-08-08T03:52:38;98904.13;;;23.40;57.93
80382;BME280;69692;55.820;37.490;2023-08-08T03:55:08;98906.53;;;23.41;57.25
80382;BME280;69692;55.820;37.490;2023-08-08T03:57:34;98906.53;;;23.41;57.67
80382;BME280;69692;55.820;37.490;2023-08-08T04:00:00;98918.50;;;23.37;56.67
80382;BME280;69692;55.820;37.490;2023-08-08T04:02:26;98920.75;;;23.35;57.04
80382;BME280;69692;55.820;37.490;2023-08-08T04:04:54;98917.88;;;23.31;57.39
80382;BME280;69692;55.820;37.490;2023-08-08T04:07:19;98914.81;;;23.33;56.87
80382;BME280;69692;55.820;37.490;2023-08-08T04:09:48;98919.16;;;23.34;57.51
80382;BME280;69692;55.820;37.490;2023-08-08T04:12:14;98914.81;;;23.33;57.24
80382;BME280;69692;55.820;37.490;2023-08-08T04:14:39;98919.31;;;23.37;57.02
80382;BME280;69692;55.820;37.490;2023-08-08T04:17:05;98924.47;;;23.39;57.35
80382;BME280;69692;55.820;37.490;2023-08-08T04:19:31;98924.66;;;23.34;57.14
80382;BME280;69692;55.820;37.490;2023-08-08T04:21:57;98927.38;;;23.34;57.97
80382;BME280;69692;55.820;37.490;2023-08-08T04:24:23;98922.91;;;23.29;58.31
80382;BME280;69692;55.820;37.490;2023-08-08T04:26:49;98918.75;;;23.23;58.27
80382;BME280;69692;55.820;37.490;2023-08-08T04:29:14;98926.34;;;23.17;59.41
80382;BME280;69692;55.820;37.490;2023-08-08T04:31:40;98931.72;;;23.14;59.33
80382;BME280;69692;55.820;37.490;2023-08-08T04:34:06;98934.97;;;23.07;58.94
80382;BME280;69692;55.820;37.490;2023-08-08T04:36:32;98923.50;;;23.05;59.04
80382;BME280;69692;55.820;37.490;2023-08-08T04:38:58;98927.88;;;23.06;59.70
80382;BME280;69692;55.820;37.490;2023-08-08T04:41:24;98935.97;;;23.03;60.46
80382;BME280;69692;55.820;37.490;2023-08-08T04:43:50;98935.28;;;23.06;59.95
80382;BME280;69692;55.820;37.490;2023-08-08T04:46:16;98932.53;;;23.06;59.52
80382;BME280;69692;55.820;37.490;2023-08-08T04:48:41;98919.31;;;23.08;59.74
80382;BME280;69692;55.820;37.490;2023-08-08T04:51:08;98920.13;;;23.08;60.40
80382;BME280;69692;55.820;37.490;2023-08-08T04:53:34;98929.50;;;23.07;60.57
80382;BME280;69692;55.820;37.490;2023-08-08T04:56:00;98934.81;;;23.04;60.43
80382;BME280;69692;55.820;37.490;2023-08-08T04:58:26;98931.31;;;22.95;61.84
80382;BME280;69692;55.820;37.490;2023-08-08T05:00:52;98933.75;;;22.96;61.53
80382;BME280;69692;55.820;37.490;2023-08-08T05:03:18;98933.59;;;22.93;61.94
80382;BME280;69692;55.820;37.490;2023-08-08T05:05:44;98937.50;;;22.83;62.56
80382;BME280;69692;55.820;37.490;2023-08-08T05:08:11;98934.59;;;22.71;62.51
80382;BME280;69692;55.820;37.490;2023-08-08T05:10:37;98935.75;;;22.61;63.96
80382;BME280;69692;55.820;37.490;2023-08-08T05:13:03;98953.19;;;22.56;64.71
80382;BME280;69692;55.820;37.490;2023-08-08T05:15:29;98945.81;;;22.48;66.47
80382;BME280;69692;55.820;37.490;2023-08-08T05:17:55;98950.97;;;22.41;67.53
80382;BME280;69692;55.820;37.490;2023-08-08T05:20:21;98966.63;;;22.41;65.71
80382;BME280;69692;55.820;37.490;2023-08-08T05:22:47;98957.25;;;22.42;65.47
80382;BME280;69692;55.820;37.490;2023-08-08T05:27:39;98961.28;;;22.44;66.30
80382;BME280;69692;55.820;37.490;2023-08-08T05:32:31;98960.63;;;22.56;66.97
80382;BME280;69692;55.820;37.490;2023-08-08T05:34:57;98951.00;;;23.85;63.01
80382;BME280;69692;55.820;37.490;2023-08-08T05:37:24;98948.56;;;24.58;59.55
80382;BME280;69692;55.820;37.490;2023-08-08T05:39:50;98942.25;;;25.15;56.83
80382;BME280;69692;55.820;37.490;2023-08-08T05:42:15;98933.59;;;25.53;55.22
80382;BME280;69692;55.820;37.490;2023-08-08T05:44:41;98951.72;;;25.79;54.77
80382;BME280;69692;55.820;37.490;2023-08-08T05:47:07;98946.53;;;25.90;53.94
80382;BME280;69692;55.820;37.490;2023-08-08T05:49:33;98948.69;;;25.84;54.82
80382;BME280;69692;55.820;37.490;2023-08-08T05:51:59;98944.78;;;25.85;54.12
80382;BME280;69692;55.820;37.490;2023-08-08T05:54:25;98938.88;;;25.99;53.90
80382;BME280;69692;55.820;37.490;2023-08-08T05:56:51;98942.75;;;26.10;53.53
80382;BME280;69692;55.820;37.490;2023-08-08T05:59:17;98943.13;;;26.08;53.42
80382;BME280;69692;55.820;37.490;2023-08-08T06:01:42;98939.69;;;25.99;53.52
80382;BME280;69692;55.820;37.490;2023-08-08T06:04:09;98947.44;;;25.81;53.51
80382;BME280;69692;55.820;37.490;2023-08-08T06:06:35;98946.00;;;25.47;54.78
80382;BME280;69692;55.820;37.490;2023-08-08T06:09:01;98948.63;;;25.68;54.44
80382;BME280;69692;55.820;37.490;2023-08-08T06:11:27;98946.09;;;25.75;54.23
80382;BME280;69692;55.820;37.490;2023-08-08T06:13:53;98948.16;;;25.54;54.07
80382;BME280;69692;55.820;37.490;2023-08-08T06:16:20;98949.19;;;25.62;54.24
80382;BME280;69692;55.820;37.490;2023-08-08T06:18:46;98953.31;;;25.80;53.94
80382;BME280;69692;55.820;37.490;2023-08-08T06:21:12;98946.97;;;25.92;53.31
80382;BME280;69692;55.820;37.490;2023-08-08T06:23:38;98940.94;;;26.02;52.95
80382;BME280;69692;55.820;37.490;2023-08-08T06:26:04;98945.63;;;26.13;52.65
80382;BME280;69692;55.820;37.490;2023-08-08T06:28:29;98949.63;;;26.16;52.93
80382;BME280;69692;55.820;37.490;2023-08-08T06:30:57;98958.81;;;26.20;52.59
80382;BME280;69692;55.820;37.490;2023-08-08T06:33:23;98953.03;;;26.25;52.43
80382;BME280;69692;55.820;37.490;2023-08-08T06:35:49;98965.59;;;26.23;52.40
80382;BME280;69692;55.820;37.490;2023-08-08T06:38:15;98953.91;;;25.61;54.26
80382;BME280;69692;55.820;37.490;2023-08-08T06:40:41;98961.03;;;25.13;54.90
80382;BME280;69692;55.820;37.490;2023-08-08T06:43:07;98964.88;;;24.76;56.29
80382;BME280;69692;55.820;37.490;2023-08-08T06:45:32;98967.09;;;24.49;57.33
80382;BME280;69692;55.820;37.490;2023-08-08T06:47:58;98961.88;;;24.35;57.65
80382;BME280;69692;55.820;37.490;2023-08-08T06:50:24;98960.97;;;24.31;57.85
80382;BME280;69692;55.820;37.490;2023-08-08T06:52:50;98959.06;;;24.23;57.59
80382;BME280;69692;55.820;37.490;2023-08-08T06:55:16;98957.31;;;24.19;58.11
80382;BME280;69692;55.820;37.490;2023-08-08T06:57:42;98956.41;;;24.15;58.74
80382;BME280;69692;55.820;37.490;2023-08-08T07:00:09;98956.81;;;24.04;58.28
80382;BME280;69692;55.820;37.490;2023-08-08T07:02:37;98967.00;;;24.04;58.91
80382;BME280;69692;55.820;37.490;2023-08-08T07:05:03;98963.38;;;24.12;58.98
80382;BME280;69692;55.820;37.490;2023-08-08T07:07:30;98972.41;;;24.33;60.06
80382;BME280;69692;55.820;37.490;2023-08-08T07:09:58;98974.59;;;24.40;57.72
80382;BME280;69692;55.820;37.490;2023-08-08T07:12:24;98976.78;;;24.34;57.99
80382;BME280;69692;55.820;37.490;2023-08-08T07:14:50;98979.31;;;24.39;59.02
80382;BME280;69692;55.820;37.490;2023-08-08T07:17:16;98980.25;;;24.44;59.04
80382;BME280;69692;55.820;37.490;2023-08-08T07:19:42;98983.19;;;24.38;59.32
80382;BME280;69692;55.820;37.490;2023-08-08T07:22:08;98987.91;;;24.38;60.16
80382;BME280;69692;55.820;37.490;2023-08-08T07:24:34;98978.38;;;24.35;58.24
80382;BME280;69692;55.820;37.490;2023-08-08T07:27:00;98981.00;;;24.32;57.74
80382;BME280;69692;55.820;37.490;2023-08-08T07:29:26;98983.59;;;24.28;58.09
80382;BME280;69692;55.820;37.490;2023-08-08T07:31:52;98990.25;;;24.27;58.65
80382;BME280;69692;55.820;37.490;2023-08-08T07:34:19;98989.78;;;24.25;58.45
80382;BME280;69692;55.820;37.490;2023-08-08T07:36:46;98971.66;;;24.24;58.68
80382;BME280;69692;55.820;37.490;2023-08-08T07:39:12;98973.75;;;24.27;58.64
80382;BME280;69692;55.820;37.490;2023-08-08T07:41:38;98978.84;;;24.37;58.86
80382;BME280;69692;55.820;37.490;2023-08-08T07:44:04;98985.31;;;24.54;57.96
80382;BME280;69692;55.820;37.490;2023-08-08T07:46:31;98997.09;;;24.75;57.11
80382;BME280;69692;55.820;37.490;2023-08-08T07:48:57;98995.97;;;24.88;58.42
80382;BME280;69692;55.820;37.490;2023-08-08T07:51:30;99000.72;;;25.12;56.01
80382;BME280;69692;55.820;37.490;2023-08-08T07:53:56;98988.34;;;25.18;55.81
80382;BME280;69692;55.820;37.490;2023-08-08T07:56:22;98984.66;;;25.26;56.09
80382;BME280;69692;55.820;37.490;2023-08-08T07:58:48;98980.91;;;25.31;56.50
80382;BME280;69692;55.820;37.490;2023-08-08T08:01:14;98982.25;;;25.25;57.77
80382;BME280;69692;55.820;37.490;2023-08-08T08:03:40;98982.84;;;25.18;57.18
80382;BME280;69692;55.820;37.490;2023-08-08T08:06:06;98985.25;;;25.08;58.04
80382;BME280;69692;55.820;37.490;2023-08-08T08:08:32;98997.63;;;25.02;57.18
80382;BME280;69692;55.820;37.490;2023-08-08T08:10:58;98989.72;;;25.00;57.36
80382;BME280;69692;55.820;37.490;2023-08-08T08:13:24;98982.97;;;25.22;57.64
80382;BME280;69692;55.820;37.490;2023-08-08T08:15:50;98985.72;;;25.22;57.22
80382;BME280;69692;55.820;37.490;2023-08-08T08:18:16;98999.47;;;25.22;56.46
80382;BME280;69692;55.820;37.490;2023-08-08T08:20:43;98994.41;;;25.12;56.96
80382;BME280;69692;55.820;37.490;2023-08-08T08:23:10;98990.16;;;25.14;57.71
80382;BME280;69692;55.820;37.490;2023-08-08T08:25:35;98996.50;;;25.15;57.84
80382;BME280;69692;55.820;37.490;2023-08-08T08:28:01;99007.50;;;25.15;58.18
80382;BME280;69692;55.820;37.490;2023-08-08T08:30:27;99002.31;;;25.13;57.50
80382;BME280;69692;55.820;37.490;2023-08-08T08:32:54;98999.47;;;25.10;58.65
80382;BME280;69692;55.820;37.490;2023-08-08T08:35:19;99005.31;;;25.08;59.11
80382;BME280;69692;55.820;37.490;2023-08-08T08:37:46;99009.78;;;25.01;59.43
80382;BME280;69692;55.820;37.490;2023-08-08T08:40:12;99013.50;;;24.96;59.11
80382;BME280;69692;55.820;37.490;2023-08-08T08:42:39;99010.19;;;24.90;59.30
80382;BME280;69692;55.820;37.490;2023-08-08T08:45:06;99009.78;;;25.01;58.75
80382;BME280;69692;55.820;37.490;2023-08-08T08:47:36;99013.56;;;25.08;59.51
80382;BME280;69692;55.820;37.490;2023-08-08T08:50:02;99014.81;;;25.11;58.96
80382;BME280;69692;55.820;37.490;2023-08-08T08:52:31;99020.63;;;24.97;58.71
80382;BME280;69692;55.820;37.490;2023-08-08T08:54:57;99025.41;;;24.76;58.97
80382;BME280;69692;55.820;37.490;2023-08-08T08:57:23;99021.84;;;24.75;60.50
80382;BME280;69692;55.820;37.490;2023-08-08T08:59:50;99021.50;;;24.77;60.69
80382;BME280;69692;55.820;37.490;2023-08-08T09:02:20;99026.63;;;24.66;60.57
80382;BME280;69692;55.820;37.490;2023-08-08T09:04:46;99028.34;;;24.58;60.56
80382;BME280;69692;55.820;37.490;2023-08-08T09:07:12;99027.88;;;24.56;60.31
80382;BME280;69692;55.820;37.490;2023-08-08T09:09:42;99025.28;;;24.72;60.21
80382;BME280;69692;55.820;37.490;2023-08-08T09:12:08;99019.22;;;24.79;60.12
80382;BME280;69692;55.820;37.490;2023-08-08T09:14:34;99018.91;;;24.92;60.15
80382;BME280;69692;55.820;37.490;2023-08-08T09:17:13;99008.75;;;25.42;59.13
80382;BME280;69692;55.820;37.490;2023-08-08T09:19:45;99015.88;;;25.92;57.17
80382;BME280;69692;55.820;37.490;2023-08-08T09:22:13;99010.34;;;26.32;57.32
80382;BME280;69692;55.820;37.490;2023-08-08T09:24:40;99007.03;;;26.66;56.60
80382;BME280;69692;55.820;37.490;2023-08-08T09:27:07;99018.09;;;26.82;55.29
80382;BME280;69692;55.820;37.490;2023-08-08T09:29:33;99022.75;;;26.94;55.03
80382;BME280;69692;55.820;37.490;2023-08-08T09:32:03;99011.91;;;27.01;54.33
80382;BME280;69692;55.820;37.490;2023-08-08T09:34:29;99021.66;;;26.83;53.74
80382;BME280;69692;55.820;37.490;2023-08-08T09:36:55;99017.25;;;26.66;54.77
80382;BME280;69692;55.820;37.490;2023-08-08T09:39:21;99024.13;;;26.44;54.58
80382;BME280;69692;55.820;37.490;2023-08-08T09:41:47;99025.09;;;26.36;55.57
80382;BME280;69692;55.820;37.490;2023-08-08T09:44:13;99024.41;;;26.27;55.20
80382;BME280;69692;55.820;37.490;2023-08-08T09:46:39;99023.94;;;26.25;55.66
80382;BME280;69692;55.820;37.490;2023-08-08T09:49:06;99021.66;;;26.14;55.50
80382;BME280;69692;55.820;37.490;2023-08-08T09:51:33;99027.09;;;26.11;56.28
80382;BME280;69692;55.820;37.490;2023-08-08T09:53:59;99031.91;;;26.14;56.95
80382;BME280;69692;55.820;37.490;2023-08-08T09:56:26;99037.56;;;26.05;56.17
80382;BME280;69692;55.820;37.490;2023-08-08T09:58:54;99034.38;;;25.91;58.61
80382;BME280;69692;55.820;37.490;2023-08-08T10:01:21;99040.00;;;25.82;57.32
80382;BME280;69692;55.820;37.490;2023-08-08T10:03:48;99033.56;;;25.91;57.06
80382;BME280;69692;55.820;37.490;2023-08-08T10:06:16;99034.03;;;25.93;57.71
80382;BME280;69692;55.820;37.490;2023-08-08T10:08:42;99039.66;;;25.84;58.07
80382;BME280;69692;55.820;37.490;2023-08-08T10:11:09;99033.94;;;25.77;57.93
80382;BME280;69692;55.820;37.490;2023-08-08T10:13:36;99025.78;;;25.80;57.71
80382;BME280;69692;55.820;37.490;2023-08-08T10:16:08;99029.34;;;25.81;58.09
80382;BME280;69692;55.820;37.490;2023-08-08T10:18:34;99031.16;;;25.89;58.28
80382;BME280;69692;55.820;37.490;2023-08-08T10:21:04;99025.38;;;26.06;57.11
80382;BME280;69692;55.820;37.490;2023-08-08T10:23:38;99031.69;;;26.19;56.16
80382;BME280;69692;55.820;37.490;2023-08-08T10:26:16;99029.47;;;26.25;56.25
80382;BME280;69692;55.820;37.490;2023-08-08T10:28:53;99039.59;;;26.21;55.89
80382;BME280;69692;55.820;37.490;2023-08-08T10:31:20;99036.63;;;26.13;56.22
80382;BME280;69692;55.820;37.490;2023-08-08T10:33:46;99045.13;;;26.08;57.23
80382;BME280;69692;55.820;37.490;2023-08-08T10:36:12;99049.41;;;26.06;57.74
80382;BME280;69692;55.820;37.490;2023-08-08T10:38:47;99049.41;;;26.06;57.74
80382;BME280;69692;55.820;37.490;2023-08-08T10:41:18;99055.84;;;25.98;56.85
80382;BME280;69692;55.820;37.490;2023-08-08T10:43:56;99050.22;;;25.94;57.24
80382;BME280;69692;55.820;37.490;2023-08-08T10:46:30;99055.28;;;25.92;57.07
80382;BME280;69692;55.820;37.490;2023-08-08T10:48:59;99055.16;;;25.89;56.35
80382;BME280;69692;55.820;37.490;2023-08-08T10:51:42;99061.13;;;25.91;57.08
80382;BME280;69692;55.820;37.490;2023-08-08T10:54:22;99065.25;;;25.84;56.77
80382;BME280;69692;55.820;37.490;2023-08-08T10:56:53;99073.88;;;25.83;56.92
80382;BME280;69692;55.820;37.490;2023-08-08T10:59:22;99073.38;;;26.17;57.00
80382;BME280;69692;55.820;37.490;2023-08-08T11:01:50;99068.97;;;26.29;56.54
80382;BME280;69692;55.820;37.490;2023-08-08T11:04:21;99072.63;;;26.45;59.33
80382;BME280;69692;55.820;37.490;2023-08-08T11:06:49;99073.75;;;26.56;57.20
80382;BME280;69692;55.820;37.490;2023-08-08T11:09:17;99074.97;;;26.71;57.01
80382;BME280;69692;55.820;37.490;2023-08-08T11:11:44;99080.88;;;26.85;55.79
80382;BME280;69692;55.820;37.490;2023-08-08T11:14:18;99073.94;;;26.91;56.13
80382;BME280;69692;55.820;37.490;2023-08-08T11:16:46;99083.22;;;26.99;55.73
80382;BME280;69692;55.820;37.490;2023-08-08T11:19:13;99077.47;;;27.04;55.87
80382;BME280;69692;55.820;37.490;2023-08-08T11:21:41;99068.63;;;26.98;55.97
80382;BME280;69692;55.820;37.490;2023-08-08T11:24:07;99076.66;;;27.03;55.06
80382;BME280;69692;55.820;37.490;2023-08-08T11:26:35;99076.41;;;26.81;54.55
80382;BME280;69692;55.820;37.490;2023-08-08T11:29:03;99071.00;;;26.84;55.88
80382;BME280;69692;55.820;37.490;2023-08-08T11:31:32;99076.34;;;26.93;56.11
80382;BME280;69692;55.820;37.490;2023-08-08T11:33:58;99077.63;;;26.95;55.74
80382;BME280;69692;55.820;37.490;2023-08-08T11:36:34;99079.06;;;27.05;56.42
80382;BME280;69692;55.820;37.490;2023-08-08T11:39:02;99076.66;;;27.03;54.21
80382;BME280;69692;55.820;37.490;2023-08-08T11:41:34;99084.44;;;27.14;55.89
80382;BME280;69692;55.820;37.490;2023-08-08T11:44:05;99083.72;;;27.32;55.65
80382;BME280;69692;55.820;37.490;2023-08-08T11:46:31;99080.63;;;27.81;54.19
80382;BME280;69692;55.820;37.490;2023-08-08T11:49:06;99078.22;;;28.31;52.13
80382;BME280;69692;55.820;37.490;2023-08-08T11:51:34;99082.38;;;28.25;51.95
80382;BME280;69692;55.820;37.490;2023-08-08T11:54:02;99075.03;;;28.13;52.20
80382;BME280;69692;55.820;37.490;2023-08-08T11:56:36;99076.53;;;28.10;52.71
80382;BME280;69692;55.820;37.490;2023-08-08T11:59:03;99084.88;;;28.45;51.30
80382;BME280;69692;55.820;37.490;2023-08-08T12:01:31;99083.19;;;28.60;50.26
80382;BME280;69692;55.820;37.490;2023-08-08T12:03:57;99079.06;;;28.89;49.70
80382;BME280;69692;55.820;37.490;2023-08-08T12:06:28;99079.41;;;28.88;50.11
80382;BME280;69692;55.820;37.490;2023-08-08T12:08:55;99074.22;;;29.05;49.19
80382;BME280;69692;55.820;37.490;2023-08-08T12:11:21;99068.91;;;28.97;48.78
80382;BME280;69692;55.820;37.490;2023-08-08T12:13:47;99065.75;;;28.98;49.06
80382;BME280;69692;55.820;37.490;2023-08-08T12:16:14;99064.34;;;29.08;48.53
80382;BME280;69692;55.820;37.490;2023-08-08T12:18:40;99071.66;;;28.97;49.31
80382;BME280;69692;55.820;37.490;2023-08-08T12:21:08;99073.78;;;28.45;49.90
80382;BME280;69692;55.820;37.490;2023-08-08T12:23:35;99073.56;;;28.00;51.17
80382;BME280;69692;55.820;37.490;2023-08-08T12:26:04;99082.78;;;27.72;52.12
80382;BME280;69692;55.820;37.490;2023-08-08T12:28:33;99084.72;;;27.56;53.10
80382;BME280;69692;55.820;37.490;2023-08-08T12:30:59;99090.16;;;27.52;53.48
80382;BME280;69692;55.820;37.490;2023-08-08T12:33:25;99085.91;;;27.55;53.27
80382;BME280;69692;55.820;37.490;2023-08-08T12:35:51;99084.97;;;27.51;52.89
80382;BME280;69692;55.820;37.490;2023-08-08T12:38:17;99082.50;;;27.61;53.11
80382;BME280;69692;55.820;37.490;2023-08-08T12:40:43;99085.38;;;27.65;52.38
80382;BME280;69692;55.820;37.490;2023-08-08T12:43:10;99081.63;;;27.42;53.80
80382;BME280;69692;55.820;37.490;2023-08-08T12:45:39;99080.09;;;27.44;53.31
80382;BME280;69692;55.820;37.490;2023-08-08T12:48:06;99081.91;;;27.68;53.28
80382;BME280;69692;55.820;37.490;2023-08-08T12:50:32;99077.78;;;27.78;52.26
80382;BME280;69692;55.820;37.490;2023-08-08T12:52:59;99075.25;;;27.88;51.92
80382;BME280;69692;55.820;37.490;2023-08-08T12:55:25;99085.72;;;27.79;53.00
80382;BME280;69692;55.820;37.490;2023-08-08T12:57:51;99081.97;;;27.56;53.51
80382;BME280;69692;55.820;37.490;2023-08-08T13:00:17;99078.78;;;27.70;53.36